KWYS/WYS METAR and TAF weather

Enter ICAO airport designator
Station Type Date Time Source
KWYS METAR 2020/06/06 02:10 UTC NOAA

KWYS 060210Z AUTO 00000KT 10SM CLR 17/09 A2984 RMK AO2


Station Type Date Time Source
KWYS Decoded METAR 2020/06/06 02:10 UTC NOAA

West Yellowstone, MT, United States (KWYS) 44-41N 111-07W
Jun 05, 2020 - 10:10 PM EDT / 2020.06.06 0210 UTC
Wind: Calm:0
Visibility: 10 mile(s):0
Sky conditions: clear
Temperature: 62 F (17 C)
Dew Point: 48 F (9 C)
Relative Humidity: 59%
Pressure (altimeter): 29.84 in. Hg (1010 hPa)
ob: KWYS 060210Z AUTO 00000KT 10SM CLR 17/09 A2984 RMK AO2
cycle: 2

Station Type Date Time Source
KWYS TAF 2020/06/05 18:20 UTC NOAA

TAF KWYS 051720Z 0518/0618 21012G22KT P6SM FEW080
FM060200 16007KT P6SM FEW100 SCT250
FM060700 18007KT P6SM BKN090 WS020/20040KT
FM061300 19011KT P6SM FEW060 SCT250

Example: see airport list